Disclaimer

Please do not use the information listed here in-flight or in-navigation, as they are not provided to us by the airports but are provided by volunteers, so they might be outdated.

Search


Regions


Airport information page

Radio informations:
Tower (TWR) - 119.0 MHz

Airport informations:
Latitude: 48° 06' 35.47" N
Longitude: 007° 21' 32.44" E
Elevation: 628 feet - 191 meters
Operating hours: Remarks
Operating agency: Civil government, landing fees and diplomatic clearance may be required
Timezone: UTC+1(+2DT) - Last Sunday in March to last Sunday in October
Fuel: Jet A1, without icing nhibitor.

100/130 MIL Spec, low lead, aviation gasoline (BLUE)

Runway information:
01/19 - 5282 x 98 feet< - >1610 x 30 meters

Recent METARs:
LFGA 192030Z AUTO 36007KT 9999 BKN041 01/M01 Q1006
LFGA 192100Z AUTO 36006KT 9999 FEW036 SCT140 01/M01 Q1006
LFGA 192130Z AUTO 36006KT CAVOK 01/M01 Q1006

Airport on the map: